createdAt,value
2024-02-27T00:00:29.006Z,1007.09
2024-02-27T00:01:29.018Z,1007.12
2024-02-27T00:02:28.909Z,1007.13
2024-02-27T00:03:28.917Z,1007.09
2024-02-27T00:04:28.886Z,1007.13
2024-02-27T00:05:28.917Z,1007.19
2024-02-27T00:06:28.943Z,1007.19
2024-02-27T00:07:29.035Z,1007.16
2024-02-27T00:08:28.837Z,1007.16
2024-02-27T00:09:28.870Z,1007.17
2024-02-27T00:10:28.824Z,1007.19
2024-02-27T00:11:28.894Z,1007.16
2024-02-27T00:12:28.854Z,1007.17
2024-02-27T00:13:28.884Z,1007.17
2024-02-27T00:14:28.771Z,1007.22
2024-02-27T00:15:28.767Z,1007.21
2024-02-27T00:16:28.814Z,1007.32
2024-02-27T00:17:28.838Z,1007.32
2024-02-27T00:18:28.998Z,1007.32
2024-02-27T00:19:28.875Z,1007.35
2024-02-27T00:20:28.728Z,1007.37
2024-02-27T00:21:28.730Z,1007.41
2024-02-27T00:22:28.725Z,1007.37
2024-02-27T00:23:28.687Z,1007.35
2024-02-27T00:24:28.770Z,1007.36
2024-02-27T00:25:28.742Z,1007.31
2024-02-27T00:26:28.646Z,1007.39
2024-02-27T00:27:28.685Z,1007.36
2024-02-27T00:28:28.633Z,1007.36
2024-02-27T00:29:28.618Z,1007.38
2024-02-27T00:30:28.642Z,1007.34
2024-02-27T00:31:28.697Z,1007.31
2024-02-27T00:32:28.609Z,1007.29
2024-02-27T00:33:28.648Z,1007.27
2024-02-27T00:34:28.733Z,1007.35
2024-02-27T00:35:28.569Z,1007.38
2024-02-27T00:36:28.656Z,1007.31
2024-02-27T00:37:28.601Z,1007.30
2024-02-27T00:38:28.527Z,1007.32
2024-02-27T00:39:28.570Z,1007.36
2024-02-27T00:40:28.525Z,1007.35
2024-02-27T00:41:28.589Z,1007.26
2024-02-27T00:42:28.578Z,1007.22
2024-02-27T00:43:28.470Z,1007.36
2024-02-27T00:44:28.456Z,1007.34
2024-02-27T00:45:28.610Z,1007.35
2024-02-27T00:46:28.422Z,1007.37
2024-02-27T00:50:21.612Z,1007.32
2024-02-27T00:51:21.278Z,1007.39
2024-02-27T00:52:21.236Z,1007.36
2024-02-27T00:53:21.214Z,1007.40
2024-02-27T00:54:00.282Z,1007.41
2024-02-27T00:55:22.899Z,1007.48
2024-02-27T00:56:21.356Z,1007.46
2024-02-27T00:57:21.388Z,1007.45
2024-02-27T00:58:21.158Z,1007.41
2024-02-27T00:59:21.928Z,1007.41
2024-02-27T01:00:21.691Z,1007.37
2024-02-27T01:01:21.189Z,1007.45
2024-02-27T01:02:21.110Z,1007.45
2024-02-27T01:03:21.152Z,1007.46
2024-02-27T01:04:21.080Z,1007.48
2024-02-27T01:05:00.198Z,1007.49
2024-02-27T01:06:00.295Z,1007.46
2024-02-27T01:07:00.133Z,1007.52
2024-02-27T01:08:00.054Z,1007.46
2024-02-27T01:09:00.099Z,1007.54
2024-02-27T01:10:00.051Z,1007.57
2024-02-27T01:11:00.063Z,1007.53
2024-02-27T01:12:00.055Z,1007.53
2024-02-27T01:13:00.001Z,1007.58
2024-02-27T01:13:59.998Z,1007.52
2024-02-27T01:14:59.997Z,1007.54
2024-02-27T01:15:59.977Z,1007.59
2024-02-27T01:16:59.982Z,1007.60
2024-02-27T01:18:00.043Z,1007.58
2024-02-27T01:19:00.067Z,1007.57
2024-02-27T01:20:00.000Z,1007.57
2024-02-27T01:20:59.996Z,1007.51
2024-02-27T01:21:59.889Z,1007.54
2024-02-27T01:22:59.894Z,1007.59
2024-02-27T01:23:59.920Z,1007.60
2024-02-27T01:24:59.869Z,1007.61
2024-02-27T01:25:59.848Z,1007.66
2024-02-27T01:26:59.911Z,1007.64
2024-02-27T01:27:59.851Z,1007.67
2024-02-27T01:28:59.939Z,1007.70
2024-02-27T01:29:59.887Z,1007.69
2024-02-27T01:30:59.818Z,1007.71
2024-02-27T01:31:59.827Z,1007.74
2024-02-27T01:32:59.914Z,1007.72
2024-02-27T01:33:59.906Z,1007.74
2024-02-27T01:35:00.179Z,1007.78
2024-02-27T01:35:59.898Z,1007.74
2024-02-27T01:36:59.751Z,1007.79
2024-02-27T01:37:59.755Z,1007.75
2024-02-27T01:38:59.749Z,1007.70
2024-02-27T01:39:59.712Z,1007.75
2024-02-27T01:40:59.752Z,1007.75
2024-02-27T01:41:59.721Z,1007.74
2024-02-27T01:42:59.684Z,1007.76
2024-02-27T01:43:59.700Z,1007.82
2024-02-27T01:44:59.699Z,1007.75
2024-02-27T01:45:59.677Z,1007.79
2024-02-27T01:46:59.912Z,1007.78
2024-02-27T01:47:59.756Z,1007.74
2024-02-27T01:48:59.862Z,1007.78
2024-02-27T01:49:59.604Z,1007.78
2024-02-27T01:50:59.648Z,1007.79
2024-02-27T01:51:59.668Z,1007.78
2024-02-27T01:52:59.584Z,1007.80
2024-02-27T01:53:59.642Z,1007.81
2024-02-27T01:54:59.551Z,1007.78
2024-02-27T01:55:59.594Z,1007.81
2024-02-27T01:56:59.616Z,1007.79
2024-02-27T01:57:59.590Z,1007.81
2024-02-27T01:58:59.543Z,1007.84
2024-02-27T01:59:59.532Z,1007.84
2024-02-27T02:00:59.591Z,1007.85
2024-02-27T02:01:59.508Z,1007.84
2024-02-27T02:02:59.571Z,1007.85
2024-02-27T02:03:59.575Z,1007.82
2024-02-27T02:04:59.433Z,1007.84
2024-02-27T02:05:59.485Z,1007.88
2024-02-27T02:06:59.471Z,1007.91
2024-02-27T02:07:59.412Z,1007.90
2024-02-27T02:08:59.510Z,1007.93
2024-02-27T02:09:59.389Z,1007.94
2024-02-27T02:10:59.439Z,1008.01
2024-02-27T02:11:59.414Z,1007.99
2024-02-27T02:12:59.365Z,1007.96
2024-02-27T02:13:59.341Z,1007.98
2024-02-27T02:14:59.392Z,1008.00
2024-02-27T02:15:59.373Z,1008.01
2024-02-27T02:16:59.332Z,1008.00
2024-02-27T02:17:59.405Z,1008.00
2024-02-27T02:18:59.361Z,1008.04
2024-02-27T02:19:59.312Z,1008.00
2024-02-27T02:20:59.337Z,1008.02
2024-02-27T02:21:59.416Z,1008.03
2024-02-27T02:22:59.307Z,1008.00
2024-02-27T02:23:59.278Z,1008.06
2024-02-27T02:24:59.222Z,1008.02
2024-02-27T02:25:59.236Z,1008.05
2024-02-27T02:26:59.246Z,1008.10
2024-02-27T02:27:59.188Z,1008.06
2024-02-27T02:28:59.206Z,1008.09
2024-02-27T02:29:59.205Z,1008.08
2024-02-27T02:30:59.174Z,1008.06
2024-02-27T02:31:59.173Z,1008.09
2024-02-27T02:32:59.273Z,1008.10
2024-02-27T02:33:59.169Z,1008.12
2024-02-27T02:34:59.164Z,1008.13
2024-02-27T02:35:59.138Z,1008.12
2024-02-27T02:36:59.117Z,1008.13
2024-02-27T02:37:59.134Z,1008.17
2024-02-27T02:38:59.133Z,1008.16
2024-02-27T02:39:59.066Z,1008.21
2024-02-27T02:40:59.069Z,1008.19
2024-02-27T02:41:59.114Z,1008.21
2024-02-27T02:42:59.073Z,1008.25
2024-02-27T02:43:59.061Z,1008.27
2024-02-27T02:44:59.039Z,1008.25
2024-02-27T02:45:58.989Z,1008.28
2024-02-27T02:46:58.997Z,1008.27
2024-02-27T02:47:59.226Z,1008.35
2024-02-27T02:48:59.075Z,1008.31
2024-02-27T02:49:59.060Z,1008.31
2024-02-27T02:50:58.966Z,1008.33
2024-02-27T02:51:58.946Z,1008.23
2024-02-27T02:52:58.966Z,1008.33
2024-02-27T02:53:59.011Z,1008.34
2024-02-27T02:54:58.912Z,1008.35
2024-02-27T02:55:58.921Z,1008.35
2024-02-27T02:56:58.896Z,1008.33
2024-02-27T02:57:58.926Z,1008.36
2024-02-27T02:58:58.853Z,1008.41
2024-02-27T02:59:58.922Z,1008.38
2024-02-27T03:00:59.029Z,1008.43
2024-02-27T03:01:58.826Z,1008.46
2024-02-27T03:02:58.848Z,1008.51
2024-02-27T03:03:58.882Z,1008.42
2024-02-27T03:04:58.800Z,1008.45
2024-02-27T03:05:58.959Z,1008.48
2024-02-27T03:06:58.923Z,1008.42
2024-02-27T03:07:58.818Z,1008.46
2024-02-27T03:08:58.863Z,1008.45
2024-02-27T03:09:58.762Z,1008.45
2024-02-27T03:10:58.762Z,1008.44
2024-02-27T03:11:58.747Z,1008.41
2024-02-27T03:12:58.711Z,1008.40
2024-02-27T03:13:58.701Z,1008.37
2024-02-27T03:14:58.804Z,1008.40
2024-02-27T03:15:58.704Z,1008.32
2024-02-27T03:16:58.680Z,1008.37
2024-02-27T03:17:58.793Z,1008.44
2024-02-27T03:18:58.759Z,1008.39
2024-02-27T03:19:58.742Z,1008.41
2024-02-27T03:20:58.709Z,1008.46
2024-02-27T03:21:58.645Z,1008.41
2024-02-27T03:22:58.628Z,1008.44
2024-02-27T03:23:58.617Z,1008.40
2024-02-27T03:24:58.656Z,1008.40
2024-02-27T03:25:58.637Z,1008.38
2024-02-27T03:26:58.597Z,1008.38
2024-02-27T03:27:58.567Z,1008.37
2024-02-27T03:28:58.595Z,1008.33
2024-02-27T03:29:58.561Z,1008.34
2024-02-27T03:30:58.522Z,1008.29
2024-02-27T03:31:58.498Z,1008.33
2024-02-27T03:32:58.604Z,1008.32
2024-02-27T03:33:58.639Z,1008.32
2024-02-27T03:34:58.634Z,1008.34
2024-02-27T03:35:58.562Z,1008.35
2024-02-27T03:36:58.446Z,1008.34
2024-02-27T03:37:58.443Z,1008.41
2024-02-27T03:38:58.465Z,1008.42
2024-02-27T03:39:58.421Z,1008.43
2024-02-27T03:40:58.504Z,1008.45
2024-02-27T03:41:58.556Z,1008.48
2024-02-27T03:42:58.525Z,1008.46
2024-02-27T03:43:58.377Z,1008.50
2024-02-27T03:44:58.394Z,1008.49
2024-02-27T03:45:58.398Z,1008.44
2024-02-27T03:46:58.425Z,1008.51
2024-02-27T03:47:58.437Z,1008.47
2024-02-27T03:48:58.454Z,1008.51
2024-02-27T03:49:58.347Z,1008.57
2024-02-27T03:50:58.347Z,1008.55
2024-02-27T03:51:58.417Z,1008.59
2024-02-27T03:52:58.287Z,1008.57
2024-02-27T03:53:58.457Z,1008.56
2024-02-27T03:54:58.263Z,1008.55
2024-02-27T03:55:58.302Z,1008.56
2024-02-27T03:56:58.258Z,1008.58
2024-02-27T03:57:58.323Z,1008.58
2024-02-27T03:58:58.229Z,1008.61
2024-02-27T03:59:58.261Z,1008.61
2024-02-27T04:00:58.250Z,1008.59
2024-02-27T04:01:58.184Z,1008.58
2024-02-27T04:02:58.378Z,1008.62
2024-02-27T04:03:58.201Z,1008.59
2024-02-27T04:04:58.187Z,1008.54
2024-02-27T04:05:58.209Z,1008.58
2024-02-27T04:06:58.302Z,1008.49
2024-02-27T04:07:58.267Z,1008.54
2024-02-27T04:08:58.178Z,1008.55
2024-02-27T04:09:58.107Z,1008.49
2024-02-27T04:10:58.113Z,1008.51
2024-02-27T04:11:58.147Z,1008.54
2024-02-27T04:12:58.161Z,1008.53
2024-02-27T04:13:58.089Z,1008.51
2024-02-27T04:14:58.146Z,1008.57
2024-02-27T04:15:58.155Z,1008.62
2024-02-27T04:16:58.031Z,1008.60
2024-02-27T04:17:58.056Z,1008.66
2024-02-27T04:18:58.190Z,1008.70
2024-02-27T04:19:58.073Z,1008.66
2024-02-27T04:20:58.052Z,1008.72
2024-02-27T04:21:58.016Z,1008.70
2024-02-27T04:22:58.062Z,1008.77
2024-02-27T04:23:58.085Z,1008.76
2024-02-27T04:24:57.990Z,1008.78
2024-02-27T04:25:57.932Z,1008.78
2024-02-27T04:26:57.997Z,1008.82
2024-02-27T04:27:58.013Z,1008.82
2024-02-27T04:28:57.906Z,1008.83
2024-02-27T04:29:57.918Z,1008.81
2024-02-27T04:30:57.886Z,1008.83
2024-02-27T04:31:57.890Z,1008.87
2024-02-27T04:32:58.046Z,1008.92
2024-02-27T04:33:58.010Z,1008.90
2024-02-27T04:34:57.866Z,1008.91
2024-02-27T04:35:57.832Z,1008.89
2024-02-27T04:36:58.007Z,1008.89
2024-02-27T04:37:57.818Z,1008.94
2024-02-27T04:38:57.844Z,1008.92
2024-02-27T04:39:57.791Z,1008.95
2024-02-27T04:40:57.881Z,1008.97
2024-02-27T04:41:57.870Z,1008.93
2024-02-27T04:42:57.753Z,1008.96
2024-02-27T04:43:57.736Z,1008.93
2024-02-27T04:44:57.781Z,1008.93
2024-02-27T04:45:57.728Z,1008.96
2024-02-27T04:46:57.794Z,1008.90
2024-02-27T04:47:57.783Z,1008.88
2024-02-27T04:48:57.724Z,1008.90
2024-02-27T04:49:57.715Z,1008.89
2024-02-27T04:50:57.717Z,1008.86
2024-02-27T04:51:57.720Z,1008.86
2024-02-27T04:52:57.666Z,1008.84
2024-02-27T04:53:57.630Z,1008.86
2024-02-27T04:54:57.630Z,1008.86
2024-02-27T04:55:57.599Z,1008.88
2024-02-27T04:56:57.796Z,1008.88
2024-02-27T04:57:57.708Z,1008.93
2024-02-27T04:58:57.587Z,1008.90
2024-02-27T04:59:57.619Z,1008.91
2024-02-27T05:00:57.567Z,1008.93
2024-02-27T05:01:57.560Z,1008.98
2024-02-27T05:02:57.652Z,1009.05
2024-02-27T05:03:57.668Z,1009.07
2024-02-27T05:04:57.530Z,1009.06
2024-02-27T05:05:57.592Z,1009.03
2024-02-27T05:06:57.522Z,1009.07
2024-02-27T05:07:57.607Z,1009.07
2024-02-27T05:08:57.501Z,1009.06
2024-02-27T05:09:57.491Z,1009.08
2024-02-27T05:10:57.488Z,1009.08
2024-02-27T05:11:57.529Z,1009.08
2024-02-27T05:12:57.435Z,1009.11
2024-02-27T05:13:57.415Z,1009.15
2024-02-27T05:14:57.487Z,1009.13
2024-02-27T05:15:57.468Z,1009.17
2024-02-27T05:16:57.507Z,1009.17
2024-02-27T05:17:57.725Z,1009.18
2024-02-27T05:18:57.472Z,1009.14
2024-02-27T05:19:57.363Z,1009.19
2024-02-27T05:20:57.375Z,1009.22
2024-02-27T05:21:57.353Z,1009.21
2024-02-27T05:22:57.325Z,1009.21
2024-02-27T05:23:57.424Z,1009.26
2024-02-27T05:24:57.326Z,1009.23
2024-02-27T05:25:57.401Z,1009.28
2024-02-27T05:26:57.326Z,1009.35
2024-02-27T05:27:57.284Z,1009.35
2024-02-27T05:28:57.346Z,1009.31
2024-02-27T05:29:57.306Z,1009.41
2024-02-27T05:30:57.261Z,1009.42
2024-02-27T05:31:57.230Z,1009.44
2024-02-27T05:32:57.335Z,1009.41
2024-02-27T05:33:57.368Z,1009.41
2024-02-27T05:34:57.230Z,1009.45
2024-02-27T05:35:57.348Z,1009.44
2024-02-27T05:36:57.226Z,1009.47
2024-02-27T05:37:57.206Z,1009.51
2024-02-27T05:38:57.228Z,1009.51
2024-02-27T05:39:57.228Z,1009.50
2024-02-27T05:40:57.150Z,1009.52
2024-02-27T05:41:57.263Z,1009.52
2024-02-27T05:42:57.127Z,1009.52
2024-02-27T05:43:57.095Z,1009.49
2024-02-27T05:44:57.118Z,1009.50
2024-02-27T05:45:57.155Z,1009.49
2024-02-27T05:46:57.099Z,1009.53
2024-02-27T05:47:57.129Z,1009.51
2024-02-27T05:48:57.061Z,1009.54
2024-02-27T05:49:57.088Z,1009.52
2024-02-27T05:50:57.054Z,1009.57
2024-02-27T05:51:57.348Z,1009.61
2024-02-27T05:52:57.023Z,1009.59
2024-02-27T05:53:57.129Z,1009.66
2024-02-27T05:54:57.020Z,1009.72
2024-02-27T05:55:56.976Z,1009.73
2024-02-27T05:56:57.034Z,1009.70
2024-02-27T05:57:57.008Z,1009.71
2024-02-27T05:58:56.939Z,1009.73
2024-02-27T05:59:56.978Z,1009.78
2024-02-27T06:00:57.058Z,1009.78
2024-02-27T06:01:57.040Z,1009.82
2024-02-27T06:02:57.077Z,1009.85
2024-02-27T06:03:57.114Z,1009.82
2024-02-27T06:04:56.888Z,1009.83
2024-02-27T06:05:57.010Z,1009.89
2024-02-27T06:06:57.042Z,1009.89
2024-02-27T06:07:56.935Z,1009.94
2024-02-27T06:08:56.952Z,1009.90
2024-02-27T06:09:56.834Z,1009.93
2024-02-27T06:10:56.912Z,1009.97
2024-02-27T06:11:59.435Z,1009.97
2024-02-27T06:12:56.789Z,1010.02
2024-02-27T06:13:56.800Z,1010.00
2024-02-27T06:14:56.869Z,1010.02
2024-02-27T06:15:56.756Z,1010.06
2024-02-27T06:16:56.767Z,1009.99
2024-02-27T06:17:56.798Z,1010.05
2024-02-27T06:18:56.948Z,1010.07
2024-02-27T06:19:56.978Z,1010.06
2024-02-27T06:20:56.756Z,1010.06
2024-02-27T06:21:56.717Z,1010.08
2024-02-27T06:22:56.725Z,1010.13
2024-02-27T06:23:56.710Z,1010.10
2024-02-27T06:24:56.700Z,1010.11
2024-02-27T06:25:56.848Z,1010.11
2024-02-27T06:26:56.651Z,1010.17
2024-02-27T06:27:56.640Z,1010.16
2024-02-27T06:28:56.623Z,1010.16
2024-02-27T06:29:56.627Z,1010.16
2024-02-27T06:30:56.671Z,1010.11
2024-02-27T06:31:56.608Z,1010.22
2024-02-27T06:32:56.705Z,1010.17
2024-02-27T06:33:56.715Z,1010.24
2024-02-27T06:34:56.632Z,1010.29
2024-02-27T06:35:56.631Z,1010.24
2024-02-27T06:36:56.540Z,1010.27
2024-02-27T06:37:56.537Z,1010.27
2024-02-27T06:38:56.612Z,1010.25
2024-02-27T06:39:56.534Z,1010.21
2024-02-27T06:40:56.516Z,1010.24
2024-02-27T06:41:56.479Z,1010.24
2024-02-27T06:42:56.540Z,1010.21
2024-02-27T06:43:56.466Z,1010.27
2024-02-27T06:44:56.472Z,1010.19
2024-02-27T06:45:56.443Z,1010.31
2024-02-27T06:46:56.451Z,1010.31
2024-02-27T06:47:56.515Z,1010.30
2024-02-27T06:49:03.844Z,1010.34
2024-02-27T06:49:57.566Z,1010.37
2024-02-27T06:50:56.490Z,1010.34
2024-02-27T06:51:56.534Z,1010.43
2024-02-27T06:52:56.437Z,1010.38
2024-02-27T06:53:56.415Z,1010.39
2024-02-27T06:54:56.360Z,1010.44
2024-02-27T06:55:56.444Z,1010.39
2024-02-27T06:56:56.323Z,1010.48
2024-02-27T06:57:56.392Z,1010.45
2024-02-27T06:58:56.387Z,1010.40
2024-02-27T06:59:56.361Z,1010.47
2024-02-27T07:00:56.392Z,1010.39
2024-02-27T07:01:56.302Z,1010.41
2024-02-27T07:02:56.276Z,1010.43
2024-02-27T07:03:56.387Z,1010.43
2024-02-27T07:04:56.270Z,1010.44
2024-02-27T07:05:56.330Z,1010.42
2024-02-27T07:06:56.324Z,1010.47
2024-02-27T07:07:56.264Z,1010.47
2024-02-27T07:08:56.214Z,1010.48
2024-02-27T07:09:56.218Z,1010.58
2024-02-27T07:10:56.202Z,1010.59
2024-02-27T07:11:56.176Z,1010.62
2024-02-27T07:12:56.172Z,1010.62
2024-02-27T07:13:56.247Z,1010.60
2024-02-27T07:14:56.202Z,1010.63
2024-02-27T07:15:56.142Z,1010.57
2024-02-27T07:16:56.189Z,1010.64
2024-02-27T07:17:56.167Z,1010.65
2024-02-27T07:18:56.254Z,1010.67
2024-02-27T07:19:56.151Z,1010.71
2024-02-27T07:20:56.079Z,1010.67
2024-02-27T07:21:56.080Z,1010.69
2024-02-27T07:22:56.180Z,1010.69
2024-02-27T07:23:56.096Z,1010.76
2024-02-27T07:24:56.033Z,1010.78
2024-02-27T07:25:56.130Z,1010.73
2024-02-27T07:26:56.051Z,1010.72
2024-02-27T07:27:56.048Z,1010.70
2024-02-27T07:28:55.998Z,1010.68
2024-02-27T07:29:55.993Z,1010.69
2024-02-27T07:30:56.046Z,1010.66
2024-02-27T07:31:56.048Z,1010.66
2024-02-27T07:32:56.064Z,1010.70
2024-02-27T07:33:56.052Z,1010.73
2024-02-27T07:34:55.969Z,1010.74
2024-02-27T07:35:56.064Z,1010.78
2024-02-27T07:36:55.965Z,1010.79
2024-02-27T07:37:55.961Z,1010.76
2024-02-27T07:38:55.910Z,1010.80
2024-02-27T07:39:55.875Z,1010.81
2024-02-27T07:40:56.023Z,1010.85
2024-02-27T07:41:55.896Z,1010.85
2024-02-27T07:42:55.977Z,1010.90
2024-02-27T07:43:55.900Z,1010.91
2024-02-27T07:44:55.866Z,1010.96
2024-02-27T07:45:55.868Z,1010.95
2024-02-27T07:46:55.793Z,1010.93
2024-02-27T07:47:55.873Z,1010.98
2024-02-27T07:48:56.031Z,1010.85
2024-02-27T07:49:56.001Z,1010.99
2024-02-27T07:50:57.114Z,1010.90
2024-02-27T07:51:55.917Z,1010.93
2024-02-27T07:52:55.803Z,1010.89
2024-02-27T07:53:55.717Z,1010.91
2024-02-27T07:54:55.732Z,1010.90
2024-02-27T07:55:55.691Z,1010.88
2024-02-27T07:56:55.733Z,1010.88
2024-02-27T07:57:55.808Z,1010.92
2024-02-27T07:58:55.716Z,1010.85
2024-02-27T07:59:55.683Z,1010.83
2024-02-27T08:00:55.896Z,1010.86
2024-02-27T08:01:55.712Z,1010.91
2024-02-27T08:02:55.675Z,1010.92
2024-02-27T08:03:55.810Z,1010.92
2024-02-27T08:04:55.661Z,1010.96
2024-02-27T08:05:55.648Z,1010.98
2024-02-27T08:06:56.001Z,1010.97
2024-02-27T08:07:55.744Z,1011.00
2024-02-27T08:08:55.730Z,1010.97
2024-02-27T08:09:55.677Z,1011.03
2024-02-27T08:10:56.729Z,1010.99
2024-02-27T08:11:55.607Z,1011.03
2024-02-27T08:12:55.813Z,1011.01
2024-02-27T08:13:55.977Z,1011.03
2024-02-27T08:14:55.779Z,1011.05
2024-02-27T08:15:55.888Z,1011.03
2024-02-27T08:16:55.620Z,1011.12
2024-02-27T08:17:55.796Z,1011.10
2024-02-27T08:18:55.659Z,1011.13
2024-02-27T08:19:55.550Z,1011.21
2024-02-27T08:20:58.387Z,1011.14
2024-02-27T08:21:56.402Z,1011.19
2024-02-27T08:22:55.853Z,1011.18
2024-02-27T08:23:55.562Z,1011.19
2024-02-27T08:24:55.798Z,1011.22
2024-02-27T08:25:55.856Z,1011.26
2024-02-27T08:26:58.428Z,1011.27
2024-02-27T08:27:56.747Z,1011.25
2024-02-27T08:28:55.487Z,1011.34
2024-02-27T08:29:55.460Z,1011.27
2024-02-27T08:30:55.479Z,1011.35
2024-02-27T08:31:55.473Z,1011.39
2024-02-27T08:32:56.972Z,1011.33
2024-02-27T08:33:55.464Z,1011.39
2024-02-27T08:34:55.456Z,1011.40
2024-02-27T08:35:55.321Z,1011.40
2024-02-27T08:36:55.339Z,1011.45
2024-02-27T08:37:55.327Z,1011.49
2024-02-27T08:38:55.265Z,1011.48
2024-02-27T08:39:55.338Z,1011.47
2024-02-27T08:40:55.284Z,1011.47
2024-02-27T08:41:55.328Z,1011.47
2024-02-27T08:42:55.358Z,1011.49
2024-02-27T08:43:55.236Z,1011.54
2024-02-27T08:44:55.310Z,1011.49
2024-02-27T08:45:55.325Z,1011.48
2024-02-27T08:46:55.272Z,1011.55
2024-02-27T08:47:55.295Z,1011.48
2024-02-27T08:48:55.412Z,1011.49
2024-02-27T08:49:55.381Z,1011.51
2024-02-27T08:50:55.214Z,1011.55
2024-02-27T08:51:55.297Z,1011.50
2024-02-27T08:52:55.131Z,1011.44
2024-02-27T08:53:55.420Z,1011.47
2024-02-27T08:54:55.100Z,1011.47
2024-02-27T08:55:55.204Z,1011.48
2024-02-27T08:56:55.167Z,1011.47
2024-02-27T08:57:55.066Z,1011.48
2024-02-27T08:58:55.116Z,1011.41
2024-02-27T08:59:55.047Z,1011.48
2024-02-27T09:00:55.242Z,1011.43
2024-02-27T09:01:55.106Z,1011.41
2024-02-27T09:02:55.062Z,1011.42
2024-02-27T09:03:55.196Z,1011.43
2024-02-27T09:04:54.973Z,1011.40
2024-02-27T09:05:55.051Z,1011.46
2024-02-27T09:06:55.237Z,1011.41
2024-02-27T09:07:55.095Z,1011.38
2024-02-27T09:08:56.473Z,1011.39
2024-02-27T09:09:55.197Z,1011.39
2024-02-27T09:10:55.139Z,1011.38
2024-02-27T09:11:54.961Z,1011.32
2024-02-27T09:12:55.022Z,1011.36
2024-02-27T09:13:54.876Z,1011.38
2024-02-27T09:14:54.929Z,1011.38
2024-02-27T09:15:55.100Z,1011.31
2024-02-27T09:16:55.055Z,1011.33
2024-02-27T09:17:55.145Z,1011.36
2024-02-27T09:18:55.202Z,1011.30
2024-02-27T09:19:55.068Z,1011.35
2024-02-27T09:20:54.855Z,1011.35
2024-02-27T09:21:54.861Z,1011.34
2024-02-27T09:22:54.896Z,1011.33
2024-02-27T09:23:54.809Z,1011.37
2024-02-27T09:24:54.770Z,1011.40
2024-02-27T09:25:54.851Z,1011.36
2024-02-27T09:26:54.800Z,1011.41
2024-02-27T09:27:54.943Z,1011.38
2024-02-27T09:28:54.746Z,1011.43
2024-02-27T09:29:54.769Z,1011.43
2024-02-27T09:30:54.740Z,1011.42
2024-02-27T09:31:54.696Z,1011.46
2024-02-27T09:32:54.782Z,1011.47
2024-02-27T09:33:54.732Z,1011.52
2024-02-27T09:34:54.814Z,1011.49
2024-02-27T09:35:54.680Z,1011.47
2024-02-27T09:36:54.632Z,1011.46
2024-02-27T09:37:57.749Z,1011.53
2024-02-27T09:38:54.614Z,1011.53
2024-02-27T09:39:59.356Z,1011.57
2024-02-27T09:40:55.686Z,1011.65
2024-02-27T09:41:54.632Z,1011.68
2024-02-27T09:42:54.759Z,1011.67
2024-02-27T09:43:54.630Z,1011.69
2024-02-27T09:44:54.617Z,1011.63
2024-02-27T09:45:54.751Z,1011.68
2024-02-27T09:46:54.555Z,1011.69
2024-02-27T09:47:54.681Z,1011.72
2024-02-27T09:48:54.680Z,1011.74
2024-02-27T09:49:54.586Z,1011.72
2024-02-27T09:50:54.576Z,1011.81
2024-02-27T09:51:54.540Z,1011.83
2024-02-27T09:52:54.562Z,1011.79
2024-02-27T09:53:54.571Z,1011.82
2024-02-27T09:54:54.562Z,1011.80
2024-02-27T09:55:54.585Z,1011.81
2024-02-27T09:56:54.417Z,1011.80
2024-02-27T09:57:54.715Z,1011.77
2024-02-27T09:58:54.489Z,1011.81
2024-02-27T09:59:54.445Z,1011.81
2024-02-27T10:00:54.577Z,1011.75
2024-02-27T10:01:54.526Z,1011.82
2024-02-27T10:02:54.430Z,1011.80
2024-02-27T10:03:54.514Z,1011.80
2024-02-27T10:04:54.385Z,1011.79
2024-02-27T10:05:54.466Z,1011.81
2024-02-27T10:06:54.559Z,1011.81
2024-02-27T10:07:54.391Z,1011.83
2024-02-27T10:08:54.323Z,1011.86
2024-02-27T10:09:54.421Z,1011.79
2024-02-27T10:10:54.365Z,1011.84
2024-02-27T10:11:54.323Z,1011.88
2024-02-27T10:12:54.389Z,1011.86
2024-02-27T10:13:54.313Z,1011.89
2024-02-27T10:14:54.327Z,1011.92
2024-02-27T10:15:54.340Z,1011.89
2024-02-27T10:16:54.494Z,1011.96
2024-02-27T10:17:54.397Z,1011.93
2024-02-27T10:18:54.508Z,1012.02
2024-02-27T10:19:54.308Z,1012.05
2024-02-27T10:20:54.293Z,1012.03
2024-02-27T10:21:54.185Z,1012.04
2024-02-27T10:22:54.204Z,1012.03
2024-02-27T10:23:54.310Z,1012.07
2024-02-27T10:24:54.263Z,1012.11
2024-02-27T10:25:54.228Z,1012.18
2024-02-27T10:26:54.202Z,1012.13
2024-02-27T10:27:54.147Z,1012.15
2024-02-27T10:28:54.119Z,1012.13
2024-02-27T10:29:54.155Z,1012.21
2024-02-27T10:30:54.102Z,1012.20
2024-02-27T10:31:54.142Z,1012.18
2024-02-27T10:32:54.634Z,1012.20
2024-02-27T10:33:54.222Z,1012.23
2024-02-27T10:34:54.564Z,1012.23
2024-02-27T10:35:54.221Z,1012.23
2024-02-27T10:36:54.030Z,1012.24
2024-02-27T10:37:54.231Z,1012.22
2024-02-27T10:38:54.097Z,1012.23
2024-02-27T10:39:54.310Z,1012.29
2024-02-27T10:40:54.244Z,1012.27
2024-02-27T10:41:54.004Z,1012.25
2024-02-27T10:42:54.040Z,1012.25
2024-02-27T10:43:58.853Z,1012.28
2024-02-27T10:44:54.992Z,1012.28
2024-02-27T10:45:54.194Z,1012.31
2024-02-27T10:46:53.928Z,1012.28
2024-02-27T10:47:54.102Z,1012.28
2024-02-27T10:48:54.063Z,1012.31
2024-02-27T10:49:54.024Z,1012.27
2024-02-27T10:50:54.017Z,1012.28
2024-02-27T10:51:53.939Z,1012.30
2024-02-27T10:52:53.975Z,1012.23
2024-02-27T10:53:53.929Z,1012.23
2024-02-27T10:54:53.934Z,1012.23
2024-02-27T10:55:53.841Z,1012.15
2024-02-27T10:56:53.864Z,1012.13
2024-02-27T10:57:53.946Z,1012.16
2024-02-27T10:58:53.795Z,1012.12
2024-02-27T10:59:53.771Z,1012.13
2024-02-27T11:00:53.860Z,1012.15
2024-02-27T11:01:54.019Z,1012.14
2024-02-27T11:02:53.764Z,1012.09
2024-02-27T11:03:53.946Z,1012.11
2024-02-27T11:04:53.778Z,1012.16
2024-02-27T11:05:53.944Z,1012.13
2024-02-27T11:06:53.793Z,1012.10
2024-02-27T11:07:53.770Z,1012.16
2024-02-27T11:08:53.703Z,1012.12
2024-02-27T11:09:53.754Z,1012.08
2024-02-27T11:10:53.751Z,1012.06
2024-02-27T11:11:53.614Z,1012.03
2024-02-27T11:12:53.846Z,1012.06
2024-02-27T11:13:53.629Z,1012.02
2024-02-27T11:14:53.584Z,1011.97
2024-02-27T11:15:53.608Z,1011.93
2024-02-27T11:16:53.612Z,1011.98
2024-02-27T11:17:53.827Z,1011.92
2024-02-27T11:18:56.560Z,1011.92
2024-02-27T11:19:53.821Z,1011.94
2024-02-27T11:20:53.553Z,1011.92
2024-02-27T11:21:53.625Z,1011.93
2024-02-27T11:22:53.688Z,1011.85
2024-02-27T11:23:53.619Z,1011.91
2024-02-27T11:24:53.639Z,1011.90
2024-02-27T11:25:53.514Z,1011.93
2024-02-27T11:26:53.519Z,1011.93
2024-02-27T11:27:53.558Z,1011.89
2024-02-27T11:28:53.686Z,1011.94
2024-02-27T11:29:53.615Z,1011.93
2024-02-27T11:31:03.168Z,1012.00
2024-02-27T11:31:54.222Z,1011.98
2024-02-27T11:32:53.523Z,1011.95
2024-02-27T11:33:53.704Z,1011.93
2024-02-27T11:34:53.493Z,1011.98
2024-02-27T11:35:53.365Z,1011.91
2024-02-27T11:36:53.409Z,1011.96
2024-02-27T11:37:53.493Z,1011.94
2024-02-27T11:38:53.332Z,1011.92
2024-02-27T11:39:53.434Z,1011.93
2024-02-27T11:40:53.513Z,1011.95
2024-02-27T11:41:53.295Z,1011.98
2024-02-27T11:42:53.314Z,1011.96
2024-02-27T11:43:53.315Z,1011.96
2024-02-27T11:44:53.287Z,1011.98
2024-02-27T11:45:53.368Z,1012.01
2024-02-27T11:46:53.315Z,1011.92
2024-02-27T11:47:53.874Z,1011.95
2024-02-27T11:48:53.300Z,1011.93
2024-02-27T11:49:53.342Z,1011.90
2024-02-27T11:50:53.394Z,1011.87
2024-02-27T11:51:53.244Z,1011.90
2024-02-27T11:52:53.180Z,1011.85
2024-02-27T11:53:53.187Z,1011.89
2024-02-27T11:54:53.192Z,1011.87
2024-02-27T11:55:53.220Z,1011.89
2024-02-27T11:56:53.140Z,1011.81
2024-02-27T11:57:53.149Z,1011.83
2024-02-27T11:58:53.123Z,1011.81
2024-02-27T11:59:53.129Z,1011.79
2024-02-27T12:00:53.627Z,1011.76
2024-02-27T12:01:53.659Z,1011.75
2024-02-27T12:02:53.069Z,1011.65
2024-02-27T12:03:53.156Z,1011.60
2024-02-27T12:04:53.111Z,1011.63
2024-02-27T12:05:55.215Z,1011.63
2024-02-27T12:06:53.168Z,1011.67
2024-02-27T12:07:53.061Z,1011.64